createdAt,value
2022-08-27T00:00:49.390Z,86.28
2022-08-27T00:03:17.119Z,86.11
2022-08-27T00:05:44.483Z,86.38
2022-08-27T00:08:13.186Z,85.79
2022-08-27T00:10:41.781Z,85.67
2022-08-27T00:13:09.094Z,85.91
2022-08-27T00:15:35.842Z,85.63
2022-08-27T00:18:02.594Z,85.78
2022-08-27T00:20:29.268Z,84.61
2022-08-27T00:22:56.053Z,85.68
2022-08-27T00:25:23.670Z,85.82
2022-08-27T00:27:51.094Z,85.57
2022-08-27T00:30:21.136Z,85.27
2022-08-27T00:32:48.565Z,85.40
2022-08-27T00:35:17.194Z,84.83
2022-08-27T00:37:44.861Z,85.77
2022-08-27T00:40:19.749Z,85.67
2022-08-27T00:42:47.635Z,85.82
2022-08-27T00:45:20.738Z,85.38
2022-08-27T00:47:55.803Z,85.19
2022-08-27T00:50:37.559Z,85.63
2022-08-27T00:53:19.381Z,85.20
2022-08-27T00:56:02.898Z,85.11
2022-08-27T00:58:35.480Z,85.77
2022-08-27T01:01:03.006Z,85.67
2022-08-27T01:03:30.198Z,85.72
2022-08-27T01:06:01.906Z,85.69
2022-08-27T01:08:34.339Z,85.55
2022-08-27T01:11:02.205Z,85.38
2022-08-27T01:13:58.692Z,85.08
2022-08-27T01:16:32.690Z,85.00
2022-08-27T01:19:46.861Z,84.76
2022-08-27T01:22:46.721Z,84.74
2022-08-27T01:25:17.128Z,84.63
2022-08-27T01:27:45.934Z,84.23
2022-08-27T01:30:17.502Z,84.25
2022-08-27T01:32:45.918Z,84.81
2022-08-27T01:35:14.805Z,84.43
2022-08-27T01:37:45.239Z,84.55
2022-08-27T01:40:16.802Z,84.86
2022-08-27T01:42:50.221Z,84.80
2022-08-27T01:45:24.787Z,84.46
2022-08-27T01:47:52.078Z,84.85
2022-08-27T01:50:25.027Z,84.99
2022-08-27T01:52:54.137Z,85.13
2022-08-27T01:55:25.612Z,85.23
2022-08-27T01:57:54.397Z,84.97
2022-08-27T02:00:29.680Z,85.23
2022-08-27T02:02:59.263Z,84.99
2022-08-27T02:05:28.081Z,84.71
2022-08-27T02:07:55.768Z,84.30
2022-08-27T02:10:31.352Z,84.57
2022-08-27T02:12:58.201Z,84.29
2022-08-27T02:15:26.284Z,84.37
2022-08-27T02:17:53.041Z,84.25
2022-08-27T02:20:22.068Z,84.38
2022-08-27T02:22:49.657Z,84.47
2022-08-27T02:25:19.421Z,84.72
2022-08-27T02:27:48.589Z,84.72
2022-08-27T02:30:21.017Z,84.70
2022-08-27T02:32:48.071Z,84.73
2022-08-27T02:35:16.800Z,84.61
2022-08-27T02:37:44.591Z,84.94
2022-08-27T02:40:17.308Z,85.22
2022-08-27T02:42:45.616Z,85.50
2022-08-27T02:45:14.414Z,85.45
2022-08-27T02:47:41.475Z,85.27
2022-08-27T02:50:10.351Z,85.82
2022-08-27T02:52:37.489Z,85.89
2022-08-27T02:55:06.590Z,85.99
2022-08-27T02:57:36.588Z,85.81
2022-08-27T03:00:08.963Z,85.38
2022-08-27T03:02:36.557Z,85.05
2022-08-27T03:05:05.225Z,85.17
2022-08-27T03:07:31.839Z,85.39
2022-08-27T03:09:58.557Z,85.92
2022-08-27T03:12:25.158Z,85.13
2022-08-27T03:14:52.003Z,85.15
2022-08-27T03:17:37.428Z,85.49
2022-08-27T03:20:24.262Z,85.27
2022-08-27T03:22:51.167Z,85.63
2022-08-27T03:25:18.463Z,85.60
2022-08-27T03:27:45.392Z,85.64
2022-08-27T03:30:17.704Z,85.08
2022-08-27T03:32:44.955Z,85.23
2022-08-27T03:35:12.864Z,85.01
2022-08-27T03:37:40.311Z,85.54
2022-08-27T03:40:09.100Z,84.58
2022-08-27T03:42:36.787Z,84.86
2022-08-27T03:45:04.854Z,84.33
2022-08-27T03:47:32.347Z,84.19
2022-08-27T03:50:00.625Z,84.46
2022-08-27T03:52:28.881Z,84.40
2022-08-27T03:54:55.673Z,84.70
2022-08-27T03:57:22.347Z,84.53
2022-08-27T03:59:48.959Z,84.50
2022-08-27T04:02:21.098Z,84.97
2022-08-27T04:04:47.851Z,84.64
2022-08-27T04:07:14.529Z,85.35
2022-08-27T04:09:41.156Z,85.13
2022-08-27T04:12:08.325Z,85.18
2022-08-27T04:14:34.991Z,84.64
2022-08-27T04:17:02.268Z,84.93
2022-08-27T04:19:42.868Z,85.12
2022-08-27T04:22:09.539Z,85.00
2022-08-27T04:24:37.932Z,84.85
2022-08-27T04:27:06.101Z,84.93
2022-08-27T04:29:33.442Z,85.73
2022-08-27T04:32:01.243Z,84.82
2022-08-27T04:34:28.083Z,85.11
2022-08-27T04:36:56.903Z,84.76
2022-08-27T04:39:26.038Z,85.19
2022-08-27T04:41:56.083Z,84.85
2022-08-27T04:44:25.328Z,84.66
2022-08-27T04:46:57.984Z,85.45
2022-08-27T04:49:26.870Z,84.16
2022-08-27T04:51:55.123Z,84.63
2022-08-27T04:54:32.168Z,84.57
2022-08-27T04:57:03.941Z,84.57
2022-08-27T04:59:31.792Z,84.34
2022-08-27T05:01:59.609Z,84.08
2022-08-27T05:04:26.612Z,84.50
2022-08-27T05:06:54.819Z,84.99
2022-08-27T05:09:21.698Z,83.94
2022-08-27T05:11:52.149Z,84.42
2022-08-27T05:14:19.870Z,84.26
2022-08-27T05:16:47.560Z,83.68
2022-08-27T05:19:33.332Z,83.92
2022-08-27T05:22:01.479Z,84.54
2022-08-27T05:24:28.167Z,84.54
2022-08-27T05:26:54.766Z,84.35
2022-08-27T05:29:22.184Z,84.19
2022-08-27T05:31:48.998Z,84.41
2022-08-27T05:34:22.203Z,84.04
2022-08-27T05:36:53.400Z,83.75
2022-08-27T05:39:20.050Z,83.63
2022-08-27T05:41:46.740Z,85.24
2022-08-27T05:47:03.120Z,84.87
2022-08-27T05:49:29.728Z,84.85
2022-08-27T05:51:56.315Z,84.45
2022-08-27T05:54:23.621Z,85.17
2022-08-27T05:56:50.458Z,85.09
2022-08-27T05:59:37.212Z,84.76
2022-08-27T06:02:05.964Z,84.27
2022-08-27T06:04:32.571Z,84.41
2022-08-27T06:06:59.162Z,83.63
2022-08-27T06:09:29.258Z,83.73
2022-08-27T06:11:59.992Z,83.54
2022-08-27T06:14:27.654Z,84.72
2022-08-27T06:16:55.332Z,83.85
2022-08-27T06:19:36.201Z,83.54
2022-08-27T06:22:09.887Z,83.94
2022-08-27T06:24:40.268Z,83.63
2022-08-27T06:27:08.965Z,84.36
2022-08-27T06:29:35.555Z,84.28
2022-08-27T06:32:02.434Z,83.75
2022-08-27T06:34:29.367Z,84.65
2022-08-27T06:36:55.969Z,83.91
2022-08-27T06:39:22.523Z,83.32
2022-08-27T06:41:50.241Z,83.42
2022-08-27T06:44:17.627Z,83.13
2022-08-27T06:46:44.381Z,82.72
2022-08-27T06:49:12.762Z,82.46
2022-08-27T06:51:44.723Z,82.58
2022-08-27T06:54:14.582Z,83.62
2022-08-27T06:56:44.417Z,82.89
2022-08-27T06:59:15.508Z,83.50
2022-08-27T07:01:46.843Z,82.86
2022-08-27T07:04:22.644Z,82.13
2022-08-27T07:06:57.525Z,81.81
2022-08-27T07:09:25.393Z,80.90
2022-08-27T07:11:52.040Z,80.65
2022-08-27T07:14:18.974Z,81.17
2022-08-27T07:16:45.608Z,81.30
2022-08-27T07:19:15.931Z,80.74
2022-08-27T07:21:44.106Z,81.04
2022-08-27T07:24:12.293Z,81.96
2022-08-27T07:26:49.655Z,81.34
2022-08-27T07:29:29.188Z,80.84
2022-08-27T07:32:01.103Z,81.91
2022-08-27T07:34:28.136Z,82.04
2022-08-27T07:37:17.243Z,81.21
2022-08-27T07:39:47.636Z,81.49
2022-08-27T07:42:41.018Z,82.43
2022-08-27T07:45:25.173Z,82.86
2022-08-27T07:48:05.416Z,82.90
2022-08-27T07:51:18.888Z,82.36
2022-08-27T07:53:51.311Z,81.75
2022-08-27T07:56:36.972Z,82.42
2022-08-27T07:59:47.040Z,81.81
2022-08-27T08:02:39.541Z,81.54
2022-08-27T08:05:12.683Z,81.89
2022-08-27T08:08:21.772Z,81.99
2022-08-27T08:10:51.279Z,81.62
2022-08-27T08:14:09.288Z,80.95
2022-08-27T08:16:53.748Z,79.82
2022-08-27T08:20:08.525Z,80.59
2022-08-27T08:22:59.225Z,81.03
2022-08-27T08:25:57.410Z,80.13
2022-08-27T08:36:01.796Z,77.70
2022-08-27T08:39:09.240Z,76.22
2022-08-27T08:49:58.099Z,74.94
2022-08-27T08:55:08.962Z,75.23
2022-08-27T08:57:18.592Z,74.74
2022-08-27T09:02:49.870Z,73.08
2022-08-27T09:07:04.396Z,75.59
2022-08-27T09:08:53.498Z,73.23
2022-08-27T09:19:17.480Z,74.06
2022-08-27T09:22:26.961Z,74.09
2022-08-27T09:26:02.370Z,76.02
2022-08-27T09:29:52.141Z,76.20
2022-08-27T09:32:17.732Z,74.05
2022-08-27T09:39:14.786Z,74.34
2022-08-27T09:46:04.786Z,73.31
2022-08-27T09:50:00.001Z,74.61
2022-08-27T09:52:06.335Z,73.86
2022-08-27T09:55:33.081Z,73.36
2022-08-27T10:02:09.128Z,74.56
2022-08-27T10:05:23.740Z,74.65
2022-08-27T10:12:28.710Z,74.50
2022-08-27T10:15:44.064Z,75.57
2022-08-27T10:18:27.749Z,77.07
2022-08-27T10:25:29.220Z,78.05
2022-08-27T10:29:12.759Z,78.89
2022-08-27T10:47:25.842Z,74.27
2022-08-27T10:50:13.864Z,74.57
2022-08-27T10:52:58.561Z,75.67
2022-08-27T10:56:07.883Z,75.02
2022-08-27T11:03:35.549Z,72.55
2022-08-27T11:07:15.556Z,72.66
2022-08-27T11:10:48.913Z,72.21
2022-08-27T11:13:39.696Z,70.73
2022-08-27T11:17:16.640Z,71.57
2022-08-27T11:23:57.389Z,68.81
2022-08-27T11:26:53.457Z,68.38
2022-08-27T11:29:47.379Z,68.04
2022-08-27T11:37:29.996Z,68.16
2022-08-27T11:40:22.466Z,69.66
2022-08-27T11:43:32.801Z,69.02
2022-08-27T11:57:27.385Z,67.14
2022-08-27T12:01:22.094Z,67.27
2022-08-27T12:05:15.986Z,68.13
2022-08-27T12:07:44.699Z,65.25
2022-08-27T12:10:52.152Z,65.40
2022-08-27T12:22:39.996Z,63.78
2022-08-27T12:28:05.728Z,62.33
2022-08-27T12:37:07.535Z,60.24
2022-08-27T12:40:32.274Z,59.69
2022-08-27T12:43:20.157Z,61.82
2022-08-27T12:47:05.038Z,59.79
2022-08-27T12:53:56.767Z,60.90
2022-08-27T12:57:39.111Z,59.80
2022-08-27T13:05:37.267Z,59.98
2022-08-27T13:08:45.273Z,59.06
2022-08-27T13:16:02.771Z,60.11
2022-08-27T13:19:32.777Z,60.89
2022-08-27T13:26:10.859Z,61.00
2022-08-27T13:28:53.331Z,61.13
2022-08-27T13:32:20.055Z,62.08
2022-08-27T13:35:43.779Z,56.80
2022-08-27T13:38:35.182Z,51.54
2022-08-27T13:43:08.817Z,49.04
2022-08-27T13:48:28.899Z,42.09
2022-08-27T13:51:15.881Z,42.62
2022-08-27T13:57:52.351Z,37.47
2022-08-27T14:05:16.610Z,36.47
2022-08-27T14:08:40.524Z,35.35
2022-08-27T14:12:17.117Z,35.34
2022-08-27T14:41:25.157Z,50.97
2022-08-27T14:43:57.709Z,51.09
2022-08-27T14:50:40.124Z,53.10
2022-08-27T14:54:06.009Z,53.75
2022-08-27T15:00:28.207Z,55.80
2022-08-27T15:03:32.538Z,56.87
2022-08-27T15:07:01.002Z,57.08
2022-08-27T15:13:15.177Z,56.87
2022-08-27T15:20:19.842Z,56.73
2022-08-27T15:23:40.660Z,56.93
2022-08-27T15:26:43.502Z,57.89
2022-08-27T15:33:28.908Z,54.21
2022-08-27T15:36:21.605Z,54.27
2022-08-27T15:39:36.523Z,52.99
2022-08-27T15:42:50.920Z,54.55
2022-08-27T15:46:03.981Z,50.88
2022-08-27T15:48:33.629Z,51.20
2022-08-27T15:51:53.151Z,52.30
2022-08-27T15:54:24.391Z,51.20
2022-08-27T15:57:05.096Z,50.66
2022-08-27T15:59:44.563Z,49.83
2022-08-27T16:03:02.870Z,51.44
2022-08-27T16:06:02.449Z,53.25
2022-08-27T16:08:41.986Z,55.04
2022-08-27T16:11:09.946Z,54.43
2022-08-27T16:14:10.698Z,56.04
2022-08-27T16:17:00.782Z,57.35
2022-08-27T16:20:20.543Z,55.82
2022-08-27T16:23:04.962Z,58.87
2022-08-27T16:25:52.384Z,57.43
2022-08-27T16:28:28.171Z,57.05
2022-08-27T16:30:57.356Z,58.05
2022-08-27T16:33:29.022Z,56.60
2022-08-27T16:35:55.812Z,57.44
2022-08-27T16:38:25.215Z,61.06
2022-08-27T16:41:02.225Z,58.74
2022-08-27T16:43:39.072Z,60.75
2022-08-27T16:49:30.944Z,63.28
2022-08-27T16:52:07.208Z,64.65
2022-08-27T16:54:36.973Z,64.49
2022-08-27T16:57:07.469Z,65.57
2022-08-27T17:04:49.356Z,71.03
2022-08-27T17:08:19.544Z,71.75
2022-08-27T17:19:34.130Z,74.26
2022-08-27T17:35:10.514Z,77.55
2022-08-27T17:42:47.001Z,79.40
2022-08-27T18:11:36.398Z,82.69
2022-08-27T18:19:06.999Z,82.87
2022-08-27T18:28:56.279Z,82.85
2022-08-27T23:21:40.245Z,84.45
